Time;durP1;ratioP1;P1;durP2;ratioP2;P2;SDS_P1;SDS_P2;PMS_P1;PMS_P2;Temp;Humidity;BMP_temperature;BMP_pressure;BME280_temperature;BME280_humidity;BME280_pressure;Samples;Min_cycle;Max_cycle;Signal;HPM_P1;HPM_P2
2023/07/29 00:01:43;;;;;;;2.65;1.92;;;18.90;99.90;;;;;;4979015;28;20064;-79
2023/07/29 00:04:09;;;;;;;4.05;1.75;;;18.80;99.90;;;;;;4983337;28;20026;-79
2023/07/29 00:06:35;;;;;;;2.42;1.83;;;18.80;99.90;;;;;;4977870;28;20033;-79
2023/07/29 00:09:01;;;;;;;3.90;1.80;;;18.70;99.90;;;;;;4988339;28;20056;-79
2023/07/29 00:11:26;;;;;;;1.55;1.38;;;18.80;99.90;;;;;;4977470;28;20465;-79
2023/07/29 00:13:52;;;;;;;2.28;2.08;;;18.80;99.90;;;;;;5005924;28;20080;-80
2023/07/29 00:16:21;;;;;;;1.88;1.65;;;18.80;99.90;;;;;;4991475;28;20117;-79
2023/07/29 00:18:50;;;;;;;1.58;1.35;;;18.80;99.90;;;;;;4984069;28;20884;-79
2023/07/29 00:21:15;;;;;;;2.00;1.80;;;18.70;99.90;;;;;;5021975;28;20556;-79
2023/07/29 00:23:41;;;;;;;1.85;1.35;;;18.80;99.90;;;;;;4973828;28;20132;-78
2023/07/29 00:26:06;;;;;;;3.95;2.70;;;18.70;99.90;;;;;;4970686;28;20033;-79
2023/07/29 00:28:32;;;;;;;2.55;2.35;;;18.70;99.90;;;;;;4995634;28;20026;-78
2023/07/29 00:30:58;;;;;;;3.17;1.90;;;18.60;99.90;;;;;;4981748;28;20044;-79
2023/07/29 00:33:23;;;;;;;4.07;2.17;;;18.60;99.90;;;;;;4986427;28;20029;-79
2023/07/29 00:35:49;;;;;;;2.80;2.60;;;18.60;99.90;;;;;;4989873;28;20082;-79
2023/07/29 00:38:14;;;;;;;2.90;2.70;;;18.50;99.90;;;;;;4992347;28;20449;-79
2023/07/29 00:40:40;;;;;;;3.05;2.72;;;18.50;99.90;;;;;;4986489;28;20022;-78
2023/07/29 00:43:05;;;;;;;4.65;3.05;;;18.50;99.90;;;;;;4969063;28;20504;-79
2023/07/29 00:45:32;;;;;;;3.72;2.20;;;18.40;99.90;;;;;;5004867;28;20072;-79
2023/07/29 00:47:58;;;;;;;4.20;3.80;;;18.40;99.90;;;;;;4977226;28;20584;-78
2023/07/29 00:50:24;;;;;;;5.22;3.35;;;18.40;99.90;;;;;;5002299;28;20133;-79
2023/07/29 00:52:49;;;;;;;5.00;2.80;;;18.40;99.90;;;;;;4981198;28;20033;-78
2023/07/29 00:55:15;;;;;;;3.28;2.70;;;18.40;99.90;;;;;;4976810;28;20053;-78
2023/07/29 00:57:42;;;;;;;4.65;2.72;;;18.40;99.90;;;;;;4991138;28;20037;-78
2023/07/29 01:00:08;;;;;;;3.40;2.95;;;18.50;99.90;;;;;;4988316;28;20036;-79
2023/07/29 01:02:34;;;;;;;3.42;3.03;;;18.40;99.90;;;;;;4994301;28;20053;-79
2023/07/29 01:05:01;;;;;;;4.85;4.03;;;18.40;99.90;;;;;;4988351;28;20091;-78
2023/07/29 01:07:31;;;;;;;2.88;2.53;;;18.40;99.90;;;;;;4989188;28;20045;-77
2023/07/29 01:10:04;;;;;;;4.50;3.65;;;18.30;99.90;;;;;;4990626;28;20110;-79
2023/07/29 01:13:03;;;;;;;6.40;4.25;;;18.30;99.90;;;;;;4988162;28;20496;-78
2023/07/29 01:15:35;;;;;;;2.92;2.65;;;18.20;99.90;;;;;;5001415;28;20501;-79
2023/07/29 01:18:13;;;;;;;4.90;4.22;;;18.10;99.90;;;;;;4987962;28;20041;-79
2023/07/29 01:20:40;;;;;;;9.50;4.40;;;18.20;99.90;;;;;;4980793;28;20087;-78
2023/07/29 01:23:05;;;;;;;4.72;4.32;;;18.10;99.90;;;;;;4987726;28;20556;-80
2023/07/29 01:25:31;;;;;;;5.03;3.58;;;18.00;99.90;;;;;;4975611;28;20109;-78
2023/07/29 01:27:57;;;;;;;6.53;4.32;;;18.00;99.90;;;;;;4987878;28;20140;-79
2023/07/29 01:30:25;;;;;;;4.57;4.18;;;18.00;99.90;;;;;;4988082;28;20037;-78
2023/07/29 01:33:14;;;;;;;4.18;2.20;;;17.90;99.90;;;;;;5009031;28;20048;-78
2023/07/29 01:36:07;;;;;;;4.53;2.67;;;18.00;99.90;;;;;;4987407;28;20497;-79
2023/07/29 01:38:34;;;;;;;2.45;2.17;;;18.20;99.90;;;;;;5003966;28;20040;-78
2023/07/29 01:41:04;;;;;;;6.40;3.13;;;18.10;99.90;;;;;;4974515;28;20038;-78
2023/07/29 01:43:29;;;;;;;7.95;3.80;;;18.10;99.90;;;;;;4987443;28;20041;-78
2023/07/29 01:45:55;;;;;;;7.88;3.83;;;18.00;99.90;;;;;;4988190;28;20048;-80
2023/07/29 01:48:21;;;;;;;6.05;4.25;;;18.00;99.90;;;;;;4978206;28;20056;-80
2023/07/29 01:50:47;;;;;;;5.47;4.30;;;18.00;99.90;;;;;;4980083;28;20065;-80
2023/07/29 01:53:12;;;;;;;9.40;4.28;;;18.00;99.90;;;;;;4970708;28;20060;-79
2023/07/29 01:55:39;;;;;;;5.13;4.63;;;18.00;99.90;;;;;;5002570;28;20037;-80
2023/07/29 01:58:04;;;;;;;7.10;4.53;;;18.00;99.90;;;;;;5005564;28;20041;-80
2023/07/29 02:00:30;;;;;;;4.90;4.40;;;18.10;99.90;;;;;;4965930;28;20064;-80
2023/07/29 02:02:56;;;;;;;5.05;3.72;;;18.10;99.90;;;;;;4992488;28;20208;-80
2023/07/29 02:05:24;;;;;;;3.00;2.78;;;18.20;99.90;;;;;;5004560;28;20057;-80
2023/07/29 02:07:50;;;;;;;3.70;3.40;;;18.20;99.90;;;;;;4999874;28;20489;-80
2023/07/29 02:10:16;;;;;;;2.38;2.25;;;18.20;99.90;;;;;;4989830;28;20041;-80
2023/07/29 02:12:41;;;;;;;3.28;2.95;;;18.20;99.90;;;;;;4977516;28;20030;-80
2023/07/29 02:15:10;;;;;;;7.43;4.30;;;18.20;99.90;;;;;;4972194;28;20528;-80
2023/07/29 02:17:35;;;;;;;2.42;2.22;;;18.20;99.90;;;;;;4973488;28;20042;-80
2023/07/29 02:20:03;;;;;;;3.13;2.25;;;18.20;99.90;;;;;;5008312;28;20084;-80
2023/07/29 02:22:28;;;;;;;4.55;3.80;;;18.20;99.90;;;;;;4997384;28;20071;-80
2023/07/29 02:24:54;;;;;;;4.68;3.47;;;18.20;99.90;;;;;;5009160;28;20037;-81
2023/07/29 02:27:19;;;;;;;6.03;3.85;;;18.30;99.90;;;;;;4966491;28;20481;-79
2023/07/29 02:29:45;;;;;;;9.95;3.47;;;18.10;99.90;;;;;;4975799;28;20110;-80
2023/07/29 02:32:11;;;;;;;3.80;3.25;;;18.20;99.90;;;;;;5011594;28;20072;-81
2023/07/29 02:34:36;;;;;;;4.95;3.70;;;18.20;99.90;;;;;;4991934;28;20040;-80
2023/07/29 02:37:02;;;;;;;6.13;3.47;;;18.10;99.90;;;;;;4990163;28;20117;-80
2023/07/29 02:39:28;;;;;;;2.53;2.30;;;18.20;99.90;;;;;;4996485;28;20421;-80
2023/07/29 02:41:55;;;;;;;5.80;3.40;;;18.20;99.90;;;;;;4989554;28;20497;-80
2023/07/29 02:44:20;;;;;;;3.42;3.22;;;18.20;99.90;;;;;;4992362;28;20030;-80
2023/07/29 02:46:46;;;;;;;3.72;3.40;;;18.20;99.90;;;;;;5019589;28;20026;-80
2023/07/29 02:49:12;;;;;;;2.80;2.55;;;18.20;99.90;;;;;;4982269;28;20038;-80
2023/07/29 02:51:37;;;;;;;5.00;1.73;;;18.30;99.90;;;;;;5013722;28;20036;-78
2023/07/29 02:54:03;;;;;;;4.90;1.73;;;18.20;99.90;;;;;;4982958;28;20053;-81
2023/07/29 02:56:30;;;;;;;1.33;1.23;;;18.40;99.90;;;;;;4991544;28;21541;-80
2023/07/29 02:58:56;;;;;;;3.08;1.70;;;18.50;99.90;;;;;;4968428;28;20406;-81
2023/07/29 03:01:22;;;;;;;2.72;1.50;;;18.50;99.90;;;;;;5024987;28;20051;-81
2023/07/29 03:03:47;;;;;;;1.73;1.63;;;18.50;99.90;;;;;;4970804;28;20029;-81
2023/07/29 03:06:14;;;;;;;2.78;1.33;;;18.50;99.90;;;;;;4970989;28;20393;-80
2023/07/29 03:08:39;;;;;;;2.00;1.13;;;18.50;99.90;;;;;;4983439;28;20030;-80
2023/07/29 03:11:10;;;;;;;1.30;1.20;;;18.60;99.90;;;;;;5005233;28;20048;-81
2023/07/29 03:13:35;;;;;;;4.07;1.40;;;18.60;99.90;;;;;;4993826;28;20539;-80
2023/07/29 03:16:05;;;;;;;3.83;1.30;;;18.60;99.90;;;;;;5002202;28;20030;-80
2023/07/29 03:18:31;;;;;;;2.30;1.20;;;18.50;99.90;;;;;;4971238;28;20046;-80
2023/07/29 03:20:56;;;;;;;3.38;1.90;;;18.60;99.90;;;;;;4989733;28;20111;-80
2023/07/29 03:23:22;;;;;;;2.72;1.40;;;18.60;99.90;;;;;;5025114;28;20485;-80
2023/07/29 03:25:56;;;;;;;1.23;1.13;;;18.60;99.90;;;;;;5006345;28;20196;-80
2023/07/29 03:28:23;;;;;;;4.18;1.73;;;18.60;99.90;;;;;;5009294;28;20044;-80
2023/07/29 03:30:49;;;;;;;2.88;1.50;;;18.60;99.90;;;;;;5001081;28;20053;-80
2023/07/29 03:33:14;;;;;;;1.52;1.30;;;18.60;99.90;;;;;;4975257;28;20038;-80
2023/07/29 03:35:44;;;;;;;1.50;1.40;;;18.60;99.90;;;;;;4980732;28;20035;-80
2023/07/29 03:38:09;;;;;;;1.23;1.13;;;18.60;99.90;;;;;;4976084;28;20556;-80
2023/07/29 03:40:35;;;;;;;1.52;1.42;;;18.60;99.90;;;;;;4997547;28;20117;-80
2023/07/29 03:43:01;;;;;;;2.42;1.00;;;18.60;99.90;;;;;;4977807;28;20124;-80
2023/07/29 03:45:26;;;;;;;1.55;1.45;;;18.60;99.90;;;;;;5005849;28;20045;-80
2023/07/29 03:47:52;;;;;;;1.83;1.35;;;18.60;99.90;;;;;;4973929;28;20033;-78
2023/07/29 03:50:17;;;;;;;1.60;1.25;;;18.50;99.90;;;;;;4991944;28;20037;-80
2023/07/29 03:52:43;;;;;;;2.05;1.85;;;18.50;99.90;;;;;;4987123;28;20432;-80
2023/07/29 03:55:09;;;;;;;1.83;1.73;;;18.60;99.90;;;;;;4989284;28;20092;-80
2023/07/29 03:57:34;;;;;;;2.65;2.45;;;18.60;99.90;;;;;;4985511;28;20033;-80
2023/07/29 04:00:00;;;;;;;1.88;1.73;;;18.60;99.90;;;;;;5001030;28;20080;-80
2023/07/29 04:02:25;;;;;;;2.50;2.22;;;18.60;99.90;;;;;;4981882;28;20041;-80
2023/07/29 04:04:51;;;;;;;4.53;2.05;;;18.60;99.90;;;;;;5003515;28;20489;-80
2023/07/29 04:07:17;;;;;;;2.50;2.30;;;18.70;99.90;;;;;;5005294;28;20368;-80
2023/07/29 04:09:43;;;;;;;4.38;1.80;;;18.70;99.90;;;;;;4995561;28;20037;-80
2023/07/29 04:12:09;;;;;;;3.65;2.33;;;18.60;99.90;;;;;;4990673;28;20795;-79
2023/07/29 04:14:35;;;;;;;1.90;1.80;;;18.60;99.90;;;;;;5005240;28;20030;-79
2023/07/29 04:17:00;;;;;;;3.00;2.70;;;18.50;99.90;;;;;;5010569;28;20037;-79
2023/07/29 04:19:26;;;;;;;4.00;1.95;;;18.60;99.90;;;;;;4973767;28;20362;-80
2023/07/29 04:21:52;;;;;;;2.40;2.20;;;18.50;99.90;;;;;;4992965;28;20409;-79
2023/07/29 04:24:19;;;;;;;2.13;1.70;;;18.50;99.90;;;;;;4989797;28;20034;-80
2023/07/29 04:26:45;;;;;;;2.58;2.38;;;18.50;99.90;;;;;;4992502;28;20476;-80
2023/07/29 04:29:12;;;;;;;4.22;1.70;;;18.50;99.90;;;;;;4975936;28;20036;-80
2023/07/29 04:31:37;;;;;;;1.80;1.70;;;18.50;99.90;;;;;;4990170;28;20022;-80
2023/07/29 04:34:05;;;;;;;3.63;2.28;;;18.60;99.90;;;;;;4974488;28;20025;-80
2023/07/29 04:36:30;;;;;;;2.13;1.65;;;18.50;99.90;;;;;;4991725;28;20029;-80
2023/07/29 04:38:56;;;;;;;2.30;1.77;;;18.60;99.90;;;;;;4987894;28;20033;-79
2023/07/29 04:41:21;;;;;;;2.03;1.90;;;18.60;99.90;;;;;;4980575;28;20469;-80
2023/07/29 04:43:49;;;;;;;2.00;1.88;;;18.60;99.90;;;;;;4991071;28;20033;-79
2023/07/29 04:46:16;;;;;;;3.47;3.13;;;18.60;99.90;;;;;;4974016;28;20397;-79
2023/07/29 04:48:41;;;;;;;4.57;4.18;;;18.60;99.90;;;;;;4992415;28;20108;-79
2023/07/29 04:51:07;;;;;;;4.65;2.63;;;18.60;99.90;;;;;;4978428;28;20133;-79
2023/07/29 04:53:34;;;;;;;3.40;2.63;;;18.60;99.90;;;;;;4990333;28;20038;-79
2023/07/29 04:56:00;;;;;;;5.53;5.03;;;18.60;99.90;;;;;;4984024;28;20429;-79
2023/07/29 04:58:28;;;;;;;9.05;3.20;;;18.60;99.90;;;;;;5003133;28;20037;-79
2023/07/29 05:00:54;;;;;;;5.40;4.90;;;18.60;99.90;;;;;;4992300;28;20030;-81
2023/07/29 05:03:20;;;;;;;5.22;4.65;;;18.60;99.90;;;;;;4974777;28;20080;-80
2023/07/29 05:05:45;;;;;;;7.32;4.53;;;18.60;99.90;;;;;;4980404;28;20036;-79
2023/07/29 05:08:11;;;;;;;6.25;5.45;;;18.60;99.90;;;;;;4982658;28;20037;-79
2023/07/29 05:10:36;;;;;;;7.35;5.50;;;18.60;99.90;;;;;;4988349;28;20034;-79
2023/07/29 05:13:02;;;;;;;5.03;4.63;;;18.60;99.90;;;;;;4992153;28;20033;-80
2023/07/29 05:15:28;;;;;;;10.13;6.80;;;18.60;99.90;;;;;;4992143;28;20528;-80
2023/07/29 05:17:53;;;;;;;8.63;7.78;;;18.70;99.90;;;;;;4981585;28;20040;-79
2023/07/29 05:20:19;;;;;;;7.68;6.95;;;18.70;99.90;;;;;;4990466;28;20060;-80
2023/07/29 05:22:44;;;;;;;13.23;11.98;;;18.70;99.90;;;;;;4991426;28;20037;-81
2023/07/29 05:25:10;;;;;;;9.00;8.13;;;18.80;99.90;;;;;;5003066;28;20029;-80
2023/07/29 05:27:36;;;;;;;9.25;8.15;;;18.70;99.90;;;;;;4973068;28;20041;-81
2023/07/29 05:30:01;;;;;;;7.25;6.53;;;18.80;99.90;;;;;;5005895;28;20034;-81
2023/07/29 05:32:27;;;;;;;9.25;8.38;;;18.90;99.90;;;;;;4969816;28;20530;-82
2023/07/29 05:34:53;;;;;;;10.05;9.00;;;18.90;99.90;;;;;;4987854;28;20061;-80
2023/07/29 05:37:18;;;;;;;11.38;10.15;;;18.90;99.90;;;;;;4986694;28;20370;-79
2023/07/29 05:39:44;;;;;;;8.52;7.68;;;18.90;99.90;;;;;;5004501;28;20120;-80
2023/07/29 05:42:09;;;;;;;7.93;7.22;;;19.00;99.90;;;;;;4978681;28;20061;-81
2023/07/29 05:44:36;;;;;;;13.05;8.85;;;19.00;99.90;;;;;;5002823;28;20363;-81
2023/07/29 05:47:02;;;;;;;10.65;9.65;;;19.00;99.90;;;;;;4989378;28;20025;-81
2023/07/29 05:49:28;;;;;;;8.52;7.72;;;19.10;99.90;;;;;;4991904;28;20125;-81
2023/07/29 05:51:53;;;;;;;11.27;10.15;;;19.10;99.90;;;;;;4986206;28;20140;-80
2023/07/29 05:54:19;;;;;;;13.10;10.32;;;19.10;99.90;;;;;;4987863;28;20040;-80
2023/07/29 05:56:44;;;;;;;10.25;9.15;;;19.10;99.90;;;;;;4979137;28;20037;-80
2023/07/29 05:59:10;;;;;;;8.10;7.32;;;19.10;99.90;;;;;;4993263;28;20029;-79
2023/07/29 06:01:35;;;;;;;7.20;6.50;;;19.10;99.90;;;;;;4998685;28;20049;-79
2023/07/29 06:04:04;;;;;;;8.32;7.50;;;19.20;99.90;;;;;;5005985;28;20029;-80
2023/07/29 06:06:29;;;;;;;8.45;6.00;;;19.10;99.90;;;;;;4995974;28;20037;-80
2023/07/29 06:08:55;;;;;;;8.15;6.10;;;19.10;99.90;;;;;;4977810;28;20043;-79
2023/07/29 06:11:20;;;;;;;7.90;5.55;;;19.10;99.90;;;;;;5009835;28;20033;-80
2023/07/29 06:13:47;;;;;;;5.22;4.72;;;19.10;99.90;;;;;;4993813;28;20453;-80
2023/07/29 06:16:12;;;;;;;5.35;4.50;;;19.10;99.90;;;;;;4956191;28;20096;-80
2023/07/29 06:18:38;;;;;;;4.25;3.85;;;19.10;99.90;;;;;;4979859;28;20112;-80
2023/07/29 06:21:07;;;;;;;5.85;3.70;;;19.10;99.90;;;;;;4992865;28;20033;-80
2023/07/29 06:23:35;;;;;;;4.72;3.90;;;19.20;99.90;;;;;;4990713;28;20025;-81
2023/07/29 06:26:01;;;;;;;4.65;4.13;;;19.20;99.90;;;;;;4976687;28;20401;-80
2023/07/29 06:28:26;;;;;;;5.63;4.15;;;19.20;99.90;;;;;;4979507;28;20034;-80
2023/07/29 06:30:52;;;;;;;6.70;3.60;;;19.30;99.90;;;;;;4973879;28;20064;-80
2023/07/29 06:33:18;;;;;;;5.50;3.25;;;19.30;99.90;;;;;;4975672;28;20053;-79
2023/07/29 06:35:45;;;;;;;5.13;2.60;;;19.40;99.90;;;;;;5023809;28;20117;-81
2023/07/29 06:38:11;;;;;;;3.63;2.70;;;19.40;99.90;;;;;;4975885;28;20634;-81
2023/07/29 06:40:36;;;;;;;3.00;2.35;;;19.40;99.90;;;;;;4990281;28;20030;-78
2023/07/29 06:43:02;;;;;;;3.95;2.78;;;19.40;99.90;;;;;;5009850;28;20124;-80
2023/07/29 06:45:28;;;;;;;3.17;2.70;;;19.40;99.90;;;;;;4990343;28;20029;-78
2023/07/29 06:47:53;;;;;;;4.43;2.72;;;19.40;99.90;;;;;;4977368;28;20038;-78
2023/07/29 06:50:19;;;;;;;6.40;2.78;;;19.50;99.90;;;;;;4995852;28;20156;-78
2023/07/29 06:52:45;;;;;;;6.40;3.10;;;19.60;99.90;;;;;;4986295;28;20265;-77
2023/07/29 06:55:11;;;;;;;5.78;2.60;;;19.70;99.90;;;;;;5013096;28;20048;-78
2023/07/29 06:57:36;;;;;;;4.47;2.70;;;19.80;99.90;;;;;;4980917;28;20034;-79
2023/07/29 07:00:03;;;;;;;5.82;2.80;;;19.90;99.90;;;;;;4992823;28;20041;-78
2023/07/29 07:02:28;;;;;;;3.17;2.13;;;19.80;99.90;;;;;;4997463;28;20072;-78
2023/07/29 07:04:54;;;;;;;4.43;2.45;;;19.80;99.90;;;;;;5022934;28;20489;-78
2023/07/29 07:07:19;;;;;;;5.10;2.45;;;19.80;99.90;;;;;;4989906;28;20408;-77
2023/07/29 07:09:45;;;;;;;2.80;2.33;;;19.80;99.90;;;;;;4989386;28;20404;-78
2023/07/29 07:12:10;;;;;;;3.58;2.13;;;19.90;99.90;;;;;;4992914;28;20096;-77
2023/07/29 07:14:37;;;;;;;3.65;2.53;;;20.00;99.90;;;;;;4977277;28;20041;-79
2023/07/29 07:17:02;;;;;;;3.72;2.35;;;20.00;99.90;;;;;;5004155;28;20037;-77
2023/07/29 07:19:28;;;;;;;2.95;2.22;;;20.00;99.90;;;;;;4992758;28;20037;-78
2023/07/29 07:21:53;;;;;;;2.17;1.80;;;20.00;99.90;;;;;;4991986;28;20398;-78
2023/07/29 07:24:19;;;;;;;6.22;2.17;;;20.10;99.90;;;;;;4975303;28;20114;-78
2023/07/29 07:26:44;;;;;;;2.45;1.88;;;20.20;99.90;;;;;;4977695;28;20029;-78
2023/07/29 07:29:10;;;;;;;4.93;2.25;;;20.40;99.90;;;;;;4981747;28;20029;-79
2023/07/29 07:31:36;;;;;;;2.33;1.65;;;20.60;99.90;;;;;;5006290;28;20032;-78
2023/07/29 07:34:04;;;;;;;2.25;1.50;;;20.90;99.90;;;;;;4647698;28;10000308;-78
2023/07/29 07:36:30;;;;;;;1.92;1.75;;;21.20;99.90;;;;;;5003153;28;20065;-78
2023/07/29 07:38:56;;;;;;;2.95;1.65;;;21.30;99.90;;;;;;5008029;28;20087;-78
2023/07/29 07:41:21;;;;;;;4.22;1.92;;;21.40;99.90;;;;;;4973423;28;20142;-78
2023/07/29 07:43:47;;;;;;;2.90;2.05;;;21.50;99.90;;;;;;4994830;28;20044;-78
2023/07/29 07:46:13;;;;;;;3.63;2.17;;;21.90;99.90;;;;;;5007997;28;20475;-78
2023/07/29 07:48:39;;;;;;;3.22;1.75;;;21.90;99.90;;;;;;4978779;28;20524;-78
2023/07/29 07:51:12;;;;;;;4.45;1.70;;;22.30;99.90;;;;;;4988881;28;20104;-79
2023/07/29 07:53:37;;;;;;;2.15;1.50;;;22.70;99.90;;;;;;4990875;28;20037;-77
2023/07/29 07:56:03;;;;;;;2.45;1.52;;;23.00;99.90;;;;;;5023694;28;20048;-77
2023/07/29 07:58:28;;;;;;;2.00;1.65;;;23.20;99.90;;;;;;4993479;28;20080;-78
2023/07/29 08:01:01;;;;;;;1.80;1.58;;;23.20;99.90;;;;;;4990088;28;20045;-77
2023/07/29 08:03:27;;;;;;;2.13;1.45;;;23.20;99.90;;;;;;5006794;28;20409;-78
2023/07/29 08:05:52;;;;;;;3.53;1.85;;;23.40;99.90;;;;;;4992853;28;20030;-78
2023/07/29 08:08:19;;;;;;;2.50;1.80;;;23.40;99.90;;;;;;4974056;28;20556;-77
2023/07/29 08:10:44;;;;;;;1.63;1.45;;;23.40;99.90;;;;;;4985594;28;20030;-78
2023/07/29 08:13:10;;;;;;;6.15;2.40;;;23.40;99.90;;;;;;4990830;28;20029;-78
2023/07/29 08:15:35;;;;;;;1.92;1.63;;;23.40;99.90;;;;;;4990617;28;20037;-79
2023/07/29 08:18:02;;;;;;;1.58;1.48;;;23.30;99.90;;;;;;5002272;28;20033;-78
2023/07/29 08:20:28;;;;;;;2.13;1.60;;;23.20;99.90;;;;;;4993035;28;20030;-78
2023/07/29 08:22:53;;;;;;;1.45;1.10;;;23.40;99.90;;;;;;4978204;28;20033;-78
2023/07/29 08:25:19;;;;;;;1.63;1.20;;;23.60;99.90;;;;;;4997380;28;20508;-80
2023/07/29 08:27:44;;;;;;;3.95;1.50;;;24.00;99.90;;;;;;4990003;28;20747;-80
2023/07/29 08:30:10;;;;;;;2.75;1.27;;;24.20;99.90;;;;;;4990917;28;20033;-80
2023/07/29 08:32:36;;;;;;;2.10;1.20;;;24.50;99.90;;;;;;4995820;28;20443;-80
2023/07/29 08:35:02;;;;;;;2.35;1.38;;;24.70;99.90;;;;;;4979665;28;20041;-80
2023/07/29 08:37:27;;;;;;;1.65;1.40;;;24.70;99.90;;;;;;4978725;28;20032;-80
2023/07/29 08:39:56;;;;;;;1.77;1.40;;;24.70;99.90;;;;;;4986833;28;20033;-80
2023/07/29 08:42:21;;;;;;;2.28;1.73;;;24.40;99.90;;;;;;4970976;28;20041;-80
2023/07/29 08:44:48;;;;;;;1.30;1.20;;;24.60;99.90;;;;;;5005143;28;20074;-80
2023/07/29 08:47:14;;;;;;;2.28;1.70;;;24.90;99.90;;;;;;4993287;28;20041;-80
2023/07/29 08:49:39;;;;;;;1.65;1.48;;;25.00;99.90;;;;;;5006721;28;20037;-80
2023/07/29 08:52:05;;;;;;;0.93;0.93;;;25.20;99.90;;;;;;5004793;28;20030;-80
2023/07/29 08:54:31;;;;;;;1.20;1.08;;;25.50;99.90;;;;;;4983767;28;20048;-80
2023/07/29 08:56:56;;;;;;;1.83;1.20;;;25.50;99.90;;;;;;4991206;28;20029;-80
2023/07/29 08:59:22;;;;;;;0.90;0.90;;;25.80;99.90;;;;;;4994399;28;20591;-80
2023/07/29 09:01:48;;;;;;;1.27;1.10;;;26.00;99.90;;;;;;4992616;28;20385;-80
2023/07/29 09:04:13;;;;;;;1.35;0.98;;;25.70;99.90;;;;;;4967478;28;20394;-80
2023/07/29 09:06:40;;;;;;;0.98;0.98;;;25.90;99.90;;;;;;4986433;28;20025;-80
2023/07/29 09:09:07;;;;;;;1.17;1.10;;;25.90;99.90;;;;;;4969989;28;20022;-80
2023/07/29 09:11:33;;;;;;;1.13;1.00;;;26.20;99.90;;;;;;5008632;28;20033;-80
2023/07/29 09:13:58;;;;;;;1.10;1.00;;;26.00;99.90;;;;;;4972045;28;20409;-81
2023/07/29 09:16:24;;;;;;;0.95;0.90;;;26.30;99.90;;;;;;4975396;28;20014;-80
2023/07/29 09:18:50;;;;;;;3.97;1.40;;;26.30;99.90;;;;;;4989475;28;20048;-80
2023/07/29 09:21:17;;;;;;;0.85;0.80;;;26.50;99.90;;;;;;4972397;28;20033;-80
2023/07/29 09:23:43;;;;;;;1.70;0.80;;;26.20;99.90;;;;;;5002024;28;20576;-80
2023/07/29 09:26:09;;;;;;;1.40;0.80;;;26.30;99.90;;;;;;4988756;28;20104;-81
2023/07/29 09:28:35;;;;;;;0.70;0.70;;;26.70;99.90;;;;;;4997230;28;20397;-80
2023/07/29 09:31:01;;;;;;;1.52;1.02;;;26.70;99.90;;;;;;4989917;28;20091;-80
2023/07/29 09:33:28;;;;;;;1.70;0.90;;;26.90;99.90;;;;;;4990240;28;20033;-79
2023/07/29 09:35:53;;;;;;;1.17;0.90;;;27.00;99.90;;;;;;4990958;28;20026;-79
2023/07/29 09:38:28;;;;;;;1.10;1.00;;;27.00;99.90;;;;;;4995861;28;20039;-79
2023/07/29 09:40:58;;;;;;;3.08;1.02;;;27.20;99.90;;;;;;4991328;28;20603;-79
2023/07/29 09:43:29;;;;;;;1.27;1.10;;;27.20;99.90;;;;;;4990631;28;20445;-78
2023/07/29 09:45:55;;;;;;;1.23;1.13;;;27.10;99.90;;;;;;4988070;28;20044;-78
2023/07/29 09:48:23;;;;;;;2.20;1.48;;;27.10;99.90;;;;;;4968638;28;20026;-79
2023/07/29 09:50:49;;;;;;;1.70;1.42;;;27.00;99.90;;;;;;4988741;28;20028;-79
2023/07/29 09:53:14;;;;;;;1.23;1.00;;;26.80;99.90;;;;;;4964986;28;20124;-79
2023/07/29 09:55:40;;;;;;;0.65;0.63;;;26.70;99.90;;;;;;4995783;28;20037;-79
2023/07/29 09:58:08;;;;;;;3.33;0.95;;;26.60;99.90;;;;;;4975859;28;20040;-79
2023/07/29 10:00:34;;;;;;;1.15;0.80;;;26.50;99.90;;;;;;5003748;28;20499;-79
2023/07/29 10:03:00;;;;;;;1.98;0.73;;;26.50;99.90;;;;;;5005402;28;20707;-79
2023/07/29 10:05:26;;;;;;;1.02;0.85;;;26.40;99.90;;;;;;4989885;28;20057;-79
2023/07/29 10:07:51;;;;;;;1.15;0.80;;;26.30;99.90;;;;;;5004684;28;20034;-79
2023/07/29 10:10:18;;;;;;;1.23;0.95;;;26.00;99.90;;;;;;4988708;28;20041;-79
2023/07/29 10:12:44;;;;;;;0.98;0.88;;;26.00;99.90;;;;;;4973504;28;20474;-79
2023/07/29 10:15:09;;;;;;;1.38;0.95;;;25.60;99.90;;;;;;4972742;28;20029;-79
2023/07/29 10:17:36;;;;;;;1.60;0.90;;;25.80;99.90;;;;;;4974693;28;20045;-79
2023/07/29 10:20:03;;;;;;;0.70;0.70;;;25.70;99.90;;;;;;5023372;28;20099;-79
2023/07/29 10:22:35;;;;;;;2.58;0.95;;;25.70;99.90;;;;;;4988870;28;20034;-79
2023/07/29 10:25:05;;;;;;;0.88;0.68;;;25.50;99.90;;;;;;4985803;28;20519;-79
2023/07/29 10:27:34;;;;;;;1.00;0.60;;;25.90;99.90;;;;;;4996278;28;20894;-79
2023/07/29 10:30:00;;;;;;;1.55;0.95;;;26.00;99.90;;;;;;4994594;28;20095;-79
2023/07/29 10:32:29;;;;;;;2.25;1.30;;;26.30;99.90;;;;;;4975532;28;20044;-79
2023/07/29 10:34:54;;;;;;;0.95;0.80;;;26.50;99.90;;;;;;4987224;28;21006;-79
2023/07/29 10:37:20;;;;;;;0.80;0.80;;;26.80;99.90;;;;;;4973234;28;20115;-79
2023/07/29 10:39:53;;;;;;;4.32;0.77;;;27.20;99.10;;;;;;4985952;28;20543;-79
2023/07/29 10:42:19;;;;;;;1.33;0.90;;;27.40;98.40;;;;;;4980135;28;20037;-79
2023/07/29 10:44:52;;;;;;;1.60;1.30;;;28.20;99.90;;;;;;4982656;28;20192;-80
2023/07/29 10:47:22;;;;;;;0.90;0.90;;;28.60;99.90;;;;;;5004748;28;20030;-80
2023/07/29 10:49:57;;;;;;;1.23;1.15;;;28.40;97.70;;;;;;4991336;28;20670;-79
2023/07/29 10:52:33;;;;;;;2.55;1.27;;;28.70;99.90;;;;;;4982936;28;20025;-79
2023/07/29 10:54:59;;;;;;;1.13;1.02;;;27.90;96.60;;;;;;5007488;28;20619;-78
2023/07/29 10:57:34;;;;;;;1.17;1.08;;;28.30;96.80;;;;;;5013160;28;20040;-79
2023/07/29 11:00:04;;;;;;;1.03;0.90;;;28.50;98.30;;;;;;4995997;28;20037;-79
2023/07/29 11:02:32;;;;;;;1.10;1.00;;;28.40;98.80;;;;;;4979105;28;20088;-79
2023/07/29 11:04:58;;;;;;;1.15;0.80;;;28.20;99.00;;;;;;4986151;28;20033;-79
2023/07/29 11:07:27;;;;;;;0.80;0.80;;;27.80;96.30;;;;;;4995575;28;20035;-78
2023/07/29 11:10:00;;;;;;;1.23;0.90;;;27.90;98.70;;;;;;4992304;28;20064;-78
2023/07/29 11:12:51;;;;;;;0.98;0.95;;;28.00;96.40;;;;;;4975909;28;20034;-79
2023/07/29 11:15:23;;;;;;;1.00;0.90;;;27.80;96.40;;;;;;5003318;28;20041;-79
2023/07/29 11:17:56;;;;;;;2.55;0.98;;;27.80;96.80;;;;;;4992547;28;20029;-79
2023/07/29 11:20:24;;;;;;;1.38;0.90;;;27.90;95.40;;;;;;4974998;28;20038;-79
2023/07/29 11:22:49;;;;;;;3.80;0.90;;;27.90;95.90;;;;;;4980826;28;20048;-79
2023/07/29 11:25:20;;;;;;;1.13;0.88;;;28.30;97.80;;;;;;4957603;28;20049;-79
2023/07/29 11:27:46;;;;;;;1.45;1.20;;;28.90;97.00;;;;;;4971279;28;20520;-79
2023/07/29 11:30:13;;;;;;;1.05;0.98;;;29.10;95.90;;;;;;4977426;28;20037;-79
2023/07/29 11:32:42;;;;;;;0.68;0.60;;;29.10;96.00;;;;;;4977118;28;20064;-79
2023/07/29 11:35:12;;;;;;;1.55;0.80;;;29.00;94.40;;;;;;4976215;28;20037;-80
2023/07/29 11:37:38;;;;;;;2.55;0.95;;;29.20;94.10;;;;;;4993037;28;20087;-78
2023/07/29 11:40:06;;;;;;;0.70;0.70;;;28.90;93.80;;;;;;4993786;28;20084;-79
2023/07/29 11:42:33;;;;;;;2.35;0.80;;;28.70;94.30;;;;;;5003849;28;20036;-79
2023/07/29 11:44:58;;;;;;;1.20;1.10;;;28.40;93.20;;;;;;4975272;28;20033;-78
2023/07/29 11:47:35;;;;;;;1.38;1.00;;;28.10;93.20;;;;;;4981875;28;20022;-79
2023/07/29 11:50:01;;;;;;;2.17;0.90;;;27.90;94.30;;;;;;4982235;28;20481;-79
2023/07/29 11:52:27;;;;;;;2.45;0.80;;;28.10;93.40;;;;;;4972392;28;20041;-79
2023/07/29 11:54:53;;;;;;;1.40;1.10;;;28.50;94.00;;;;;;4972818;28;20041;-79
2023/07/29 11:57:21;;;;;;;2.03;1.02;;;27.60;93.00;;;;;;4986843;28;20500;-78
2023/07/29 11:59:47;;;;;;;1.70;0.88;;;27.60;93.90;;;;;;4990095;28;20064;-80
2023/07/29 12:02:17;;;;;;;0.80;0.73;;;27.90;93.80;;;;;;4980188;28;20033;-81
2023/07/29 12:04:46;;;;;;;1.50;0.90;;;28.10;93.80;;;;;;4986689;28;20025;-79
2023/07/29 12:07:24;;;;;;;2.55;0.93;;;27.70;93.50;;;;;;4992555;28;20390;-79
2023/07/29 12:09:59;;;;;;;1.96;1.79;;;28.10;95.40;;;;;;4934279;28;10000374;-80
2023/07/29 12:12:25;;;;;;;1.17;1.08;;;28.40;91.90;;;;;;4994399;28;20266;-79
2023/07/29 12:14:50;;;;;;;0.73;0.50;;;28.10;92.90;;;;;;4972090;28;20420;-79
2023/07/29 12:17:16;;;;;;;1.45;1.25;;;27.90;92.40;;;;;;4989307;28;20600;-79
2023/07/29 12:19:42;;;;;;;1.13;1.02;;;27.50;92.40;;;;;;4988823;28;20025;-80
2023/07/29 12:22:08;;;;;;;1.23;1.13;;;27.30;92.50;;;;;;4987405;28;20096;-80
2023/07/29 12:24:36;;;;;;;3.40;0.77;;;27.80;93.30;;;;;;5005229;28;20034;-80
2023/07/29 12:27:02;;;;;;;1.10;1.00;;;28.20;93.20;;;;;;4975219;28;20038;-79
2023/07/29 12:29:27;;;;;;;1.00;0.85;;;28.90;93.00;;;;;;4988461;28;20083;-79
2023/07/29 12:32:00;;;;;;;3.83;1.20;;;29.40;93.20;;;;;;4989925;28;20612;-79
2023/07/29 12:34:28;;;;;;;1.25;1.15;;;30.00;94.30;;;;;;4971268;28;20668;-79
2023/07/29 12:36:59;;;;;;;0.77;0.77;;;29.90;90.70;;;;;;4991104;28;20033;-79
2023/07/29 12:39:29;;;;;;;0.82;0.70;;;30.10;93.00;;;;;;4980848;28;20413;-79
2023/07/29 12:41:56;;;;;;;1.30;0.93;;;29.80;87.50;;;;;;4987654;28;20076;-79
2023/07/29 12:44:30;;;;;;;4.07;1.30;;;30.00;90.50;;;;;;4986099;28;20037;-79